createdAt,value
2023-03-03T00:00:24.081Z,48.50
2023-03-03T00:02:50.600Z,48.50
2023-03-03T00:05:17.082Z,48.60
2023-03-03T00:07:43.588Z,48.60
2023-03-03T00:10:10.083Z,48.70
2023-03-03T00:12:36.590Z,48.70
2023-03-03T00:15:03.062Z,48.70
2023-03-03T00:17:29.535Z,48.80
2023-03-03T00:19:56.016Z,48.70
2023-03-03T00:22:22.526Z,48.60
2023-03-03T00:24:49.005Z,48.50
2023-03-03T00:27:15.500Z,48.50
2023-03-03T00:29:41.964Z,48.50
2023-03-03T00:32:08.440Z,48.60
2023-03-03T00:34:34.926Z,48.80
2023-03-03T00:37:01.383Z,48.90
2023-03-03T00:39:27.876Z,48.70
2023-03-03T00:41:54.347Z,48.70
2023-03-03T00:44:20.847Z,48.90
2023-03-03T00:46:47.344Z,48.50
2023-03-03T00:49:13.813Z,48.80
2023-03-03T00:51:40.302Z,48.70
2023-03-03T00:54:06.777Z,48.60
2023-03-03T00:56:33.250Z,48.70
2023-03-03T00:58:59.732Z,48.70
2023-03-03T01:01:26.260Z,48.70
2023-03-03T01:03:52.779Z,48.90
2023-03-03T01:06:19.256Z,48.70
2023-03-03T01:08:45.737Z,48.70
2023-03-03T01:11:12.261Z,48.70
2023-03-03T01:13:38.757Z,49.10
2023-03-03T01:16:05.293Z,48.70
2023-03-03T01:18:31.942Z,48.70
2023-03-03T01:20:58.418Z,49.10
2023-03-03T01:23:24.913Z,48.70
2023-03-03T01:25:51.381Z,48.90
2023-03-03T01:28:17.846Z,48.90
2023-03-03T01:30:44.343Z,48.90
2023-03-03T01:33:10.833Z,49.10
2023-03-03T01:35:37.363Z,48.90
2023-03-03T01:38:03.870Z,49.00
2023-03-03T01:40:30.365Z,49.00
2023-03-03T01:42:56.842Z,48.90
2023-03-03T01:45:23.330Z,49.00
2023-03-03T01:47:49.836Z,48.70
2023-03-03T01:50:16.300Z,49.00
2023-03-03T01:52:42.841Z,48.80
2023-03-03T01:55:09.336Z,48.80
2023-03-03T01:57:35.821Z,48.90
2023-03-03T02:00:02.305Z,48.90
2023-03-03T02:02:28.819Z,49.00
2023-03-03T02:04:55.314Z,48.90
2023-03-03T02:07:21.791Z,49.10
2023-03-03T02:09:48.609Z,48.80
2023-03-03T02:12:15.116Z,49.20
2023-03-03T02:14:41.615Z,48.90
2023-03-03T02:17:08.091Z,48.90
2023-03-03T02:19:34.606Z,49.10
2023-03-03T02:22:01.070Z,49.10
2023-03-03T02:24:27.564Z,49.30
2023-03-03T02:26:54.052Z,49.20
2023-03-03T02:29:20.533Z,49.10
2023-03-03T02:31:47.077Z,49.20
2023-03-03T02:34:13.592Z,49.10
2023-03-03T02:36:40.146Z,49.30
2023-03-03T02:39:06.653Z,49.20
2023-03-03T02:41:33.128Z,49.10
2023-03-03T02:43:59.624Z,49.40
2023-03-03T02:46:26.102Z,48.90
2023-03-03T02:48:52.588Z,49.30
2023-03-03T02:51:19.071Z,49.30
2023-03-03T02:53:45.553Z,49.10
2023-03-03T02:56:12.000Z,48.90
2023-03-03T02:58:38.482Z,49.00
2023-03-03T03:01:04.956Z,49.30
2023-03-03T03:03:31.521Z,49.30
2023-03-03T03:05:58.007Z,49.20
2023-03-03T03:08:24.498Z,49.40
2023-03-03T03:10:51.010Z,49.10
2023-03-03T03:13:17.479Z,49.30
2023-03-03T03:15:43.964Z,49.20
2023-03-03T03:18:10.449Z,49.40
2023-03-03T03:20:36.917Z,49.20
2023-03-03T03:23:03.415Z,49.30
2023-03-03T03:25:29.895Z,49.20
2023-03-03T03:27:56.364Z,49.30
2023-03-03T03:30:22.846Z,49.20
2023-03-03T03:32:49.314Z,49.30
2023-03-03T03:35:15.809Z,49.20
2023-03-03T03:37:42.270Z,49.30
2023-03-03T03:40:08.763Z,49.10
2023-03-03T03:42:35.247Z,49.00
2023-03-03T03:45:01.783Z,49.10
2023-03-03T03:47:28.257Z,49.30
2023-03-03T03:49:54.729Z,49.10
2023-03-03T03:52:21.189Z,49.60
2023-03-03T03:54:47.692Z,49.30
2023-03-03T03:57:14.160Z,49.40
2023-03-03T03:59:40.623Z,49.40
2023-03-03T04:02:07.208Z,49.30
2023-03-03T04:04:33.840Z,49.20
2023-03-03T04:07:00.325Z,49.50
2023-03-03T04:09:26.788Z,49.30
2023-03-03T04:11:53.272Z,49.40
2023-03-03T04:14:19.753Z,49.30
2023-03-03T04:16:46.240Z,49.30
2023-03-03T04:19:12.724Z,49.30
2023-03-03T04:21:39.223Z,49.30
2023-03-03T04:24:05.683Z,49.40
2023-03-03T04:26:32.189Z,49.40
2023-03-03T04:29:02.484Z,49.50
2023-03-03T04:31:28.963Z,49.50
2023-03-03T04:33:55.448Z,49.20
2023-03-03T04:36:21.946Z,49.30
2023-03-03T04:38:48.417Z,49.30
2023-03-03T04:41:14.917Z,49.40
2023-03-03T04:43:41.410Z,49.50
2023-03-03T04:46:07.949Z,49.30
2023-03-03T04:48:34.470Z,49.50
2023-03-03T04:51:00.996Z,49.60
2023-03-03T04:53:27.461Z,49.30
2023-03-03T04:55:53.989Z,49.40
2023-03-03T04:58:20.468Z,49.20
2023-03-03T05:00:46.933Z,49.40
2023-03-03T05:03:13.414Z,49.20
2023-03-03T05:05:39.883Z,49.20
2023-03-03T05:08:06.357Z,49.50
2023-03-03T05:10:35.056Z,49.30
2023-03-03T05:13:01.681Z,49.30
2023-03-03T05:15:28.156Z,49.10
2023-03-03T05:17:54.640Z,49.20
2023-03-03T05:20:21.117Z,49.30
2023-03-03T05:22:47.638Z,49.50
2023-03-03T05:25:14.092Z,49.40
2023-03-03T05:27:40.562Z,49.40
2023-03-03T05:30:07.041Z,49.60
2023-03-03T05:32:33.575Z,49.30
2023-03-03T05:35:00.099Z,49.30
2023-03-03T05:37:26.593Z,49.40
2023-03-03T05:39:53.044Z,49.40
2023-03-03T05:42:19.545Z,49.30
2023-03-03T05:44:46.005Z,49.60
2023-03-03T05:47:12.500Z,49.50
2023-03-03T05:49:38.972Z,49.50
2023-03-03T05:52:05.476Z,49.30
2023-03-03T05:54:31.948Z,49.40
2023-03-03T05:56:58.432Z,49.50
2023-03-03T05:59:24.924Z,49.70
2023-03-03T06:01:51.489Z,49.50
2023-03-03T06:04:18.029Z,49.50
2023-03-03T06:06:44.533Z,49.30
2023-03-03T06:09:11.021Z,49.30
2023-03-03T06:11:37.530Z,49.50
2023-03-03T06:14:03.997Z,49.50
2023-03-03T06:16:30.545Z,49.40
2023-03-03T06:18:57.053Z,49.40
2023-03-03T06:21:23.512Z,49.60
2023-03-03T06:23:49.974Z,49.40
2023-03-03T06:26:16.468Z,49.40
2023-03-03T06:28:42.951Z,49.30
2023-03-03T06:31:09.431Z,49.50
2023-03-03T06:33:35.919Z,49.60
2023-03-03T06:36:04.124Z,49.50
2023-03-03T06:38:32.159Z,49.50
2023-03-03T06:40:58.642Z,49.60
2023-03-03T06:43:25.113Z,49.50
2023-03-03T06:45:51.629Z,49.50
2023-03-03T06:48:18.142Z,49.60
2023-03-03T06:50:44.599Z,49.50
2023-03-03T06:53:11.101Z,49.60
2023-03-03T06:55:37.584Z,49.60
2023-03-03T06:58:04.116Z,49.50
2023-03-03T07:00:32.428Z,50.30
2023-03-03T07:02:58.960Z,49.40
2023-03-03T07:05:25.439Z,49.50
2023-03-03T07:07:51.916Z,49.40
2023-03-03T07:10:18.389Z,49.70
2023-03-03T07:12:44.883Z,49.50
2023-03-03T07:15:11.370Z,49.40
2023-03-03T07:17:37.842Z,49.50
2023-03-03T07:20:04.316Z,49.60
2023-03-03T07:22:30.777Z,49.50
2023-03-03T07:24:57.270Z,49.60
2023-03-03T07:27:23.757Z,49.60
2023-03-03T07:29:50.234Z,49.30
2023-03-03T07:32:16.722Z,49.40
2023-03-03T07:34:43.224Z,49.60
2023-03-03T07:37:09.732Z,49.50
2023-03-03T07:39:39.067Z,49.50
2023-03-03T07:42:06.805Z,49.70
2023-03-03T07:44:33.255Z,49.40
2023-03-03T07:46:59.725Z,49.50
2023-03-03T07:49:26.206Z,49.60
2023-03-03T07:51:52.685Z,49.40
2023-03-03T07:54:19.177Z,49.50
2023-03-03T07:56:45.662Z,49.30
2023-03-03T07:59:12.148Z,49.40
2023-03-03T08:01:38.613Z,49.50
2023-03-03T08:04:05.199Z,49.50
2023-03-03T08:06:31.728Z,49.60
2023-03-03T08:08:58.230Z,49.60
2023-03-03T08:11:24.708Z,49.80
2023-03-03T08:13:51.204Z,49.50
2023-03-03T08:16:17.736Z,49.50
2023-03-03T08:18:44.218Z,49.50
2023-03-03T08:21:10.692Z,49.50
2023-03-03T08:23:37.161Z,49.50
2023-03-03T08:26:03.620Z,49.60
2023-03-03T08:28:30.099Z,49.40
2023-03-03T08:31:12.524Z,49.50
2023-03-03T08:33:41.683Z,49.60
2023-03-03T08:36:11.230Z,49.80
2023-03-03T08:38:37.701Z,49.60
2023-03-03T08:41:04.180Z,49.60
2023-03-03T08:43:30.636Z,49.80
2023-03-03T08:45:57.102Z,49.60
2023-03-03T08:48:23.589Z,49.60
2023-03-03T08:50:50.074Z,49.90
2023-03-03T08:53:16.536Z,49.60
2023-03-03T08:55:43.019Z,49.90
2023-03-03T08:58:09.483Z,49.70
2023-03-03T09:00:35.963Z,49.70
2023-03-03T09:03:02.424Z,49.60
2023-03-03T09:05:29.069Z,49.60
2023-03-03T09:07:55.538Z,49.70
2023-03-03T09:10:22.026Z,49.60
2023-03-03T09:12:48.507Z,50.30
2023-03-03T09:15:15.022Z,49.80
2023-03-03T09:17:41.511Z,49.60
2023-03-03T09:20:08.025Z,49.70
2023-03-03T09:22:34.534Z,49.60
2023-03-03T09:25:01.011Z,49.70
2023-03-03T09:27:27.592Z,49.60
2023-03-03T09:29:54.078Z,49.60
2023-03-03T09:32:20.584Z,49.70
2023-03-03T09:34:47.091Z,49.80
2023-03-03T09:37:15.415Z,49.80
2023-03-03T09:39:42.050Z,49.90
2023-03-03T09:42:08.516Z,49.80
2023-03-03T09:44:35.040Z,49.60
2023-03-03T09:47:01.547Z,49.70
2023-03-03T09:49:28.068Z,49.80
2023-03-03T09:51:54.531Z,49.80
2023-03-03T09:54:20.990Z,49.80
2023-03-03T09:56:47.480Z,49.90
2023-03-03T09:59:13.951Z,49.80
2023-03-03T10:01:40.454Z,49.60
2023-03-03T10:04:06.966Z,49.80
2023-03-03T10:06:33.468Z,49.80
2023-03-03T10:08:59.953Z,49.90
2023-03-03T10:11:26.405Z,49.90
2023-03-03T10:13:52.859Z,49.70
2023-03-03T10:16:19.396Z,49.60
2023-03-03T10:18:45.906Z,49.60
2023-03-03T10:21:12.400Z,49.80
2023-03-03T10:23:38.880Z,49.70
2023-03-03T10:26:05.357Z,49.90
2023-03-03T10:28:31.850Z,49.80
2023-03-03T10:31:06.657Z,49.80
2023-03-03T10:33:35.835Z,49.70
2023-03-03T10:36:07.527Z,49.80
2023-03-03T10:38:34.641Z,49.80
2023-03-03T10:41:02.268Z,49.80
2023-03-03T10:43:32.053Z,49.90
2023-03-03T10:45:59.129Z,49.80
2023-03-03T10:48:25.626Z,50.00
2023-03-03T10:50:52.129Z,49.70
2023-03-03T10:53:18.627Z,49.90
2023-03-03T10:55:45.125Z,49.80
2023-03-03T10:58:11.612Z,49.80
2023-03-03T11:00:38.111Z,50.00
2023-03-03T11:03:04.573Z,49.90
2023-03-03T11:05:31.047Z,49.80
2023-03-03T11:07:57.542Z,49.80
2023-03-03T11:10:24.003Z,50.00
2023-03-03T11:12:50.468Z,49.80
2023-03-03T11:15:16.931Z,50.00
2023-03-03T11:17:43.422Z,50.10
2023-03-03T11:20:09.915Z,49.90
2023-03-03T11:22:36.402Z,49.80
2023-03-03T11:25:02.873Z,50.10
2023-03-03T11:27:29.341Z,50.00
2023-03-03T11:29:55.806Z,50.10
2023-03-03T11:32:22.296Z,50.10
2023-03-03T11:34:48.801Z,49.90
2023-03-03T11:37:15.321Z,50.00
2023-03-03T11:39:41.797Z,50.00
2023-03-03T11:42:08.275Z,50.00
2023-03-03T11:44:34.756Z,49.90
2023-03-03T11:47:01.256Z,49.90
2023-03-03T11:49:27.740Z,50.00
2023-03-03T11:51:54.246Z,50.00
2023-03-03T11:54:20.720Z,50.10
2023-03-03T11:56:47.223Z,50.20
2023-03-03T11:59:13.697Z,50.90
2023-03-03T12:01:40.212Z,50.30
2023-03-03T12:04:06.667Z,50.20
2023-03-03T12:06:33.138Z,50.10
2023-03-03T12:08:59.637Z,50.10
2023-03-03T12:11:26.117Z,50.40
2023-03-03T12:13:52.594Z,50.10
2023-03-03T12:16:19.125Z,50.10
2023-03-03T12:18:45.654Z,50.10
2023-03-03T12:21:12.144Z,50.30
2023-03-03T12:23:38.685Z,50.10
2023-03-03T12:26:05.235Z,50.30
2023-03-03T12:28:31.801Z,50.10
2023-03-03T12:30:58.374Z,50.20
2023-03-03T12:33:24.952Z,50.10
2023-03-03T12:35:51.531Z,50.20
2023-03-03T12:38:18.123Z,50.10
2023-03-03T12:40:44.697Z,50.20
2023-03-03T12:43:11.260Z,50.30
2023-03-03T12:45:37.828Z,50.20
2023-03-03T12:48:04.376Z,50.20
2023-03-03T12:50:30.933Z,50.20
2023-03-03T12:52:57.495Z,50.30
2023-03-03T12:55:24.054Z,50.30
2023-03-03T12:57:50.591Z,50.30
2023-03-03T13:00:17.142Z,50.30
2023-03-03T13:02:43.728Z,50.40
2023-03-03T13:05:10.303Z,50.40
2023-03-03T13:07:36.877Z,50.50
2023-03-03T13:10:03.480Z,50.60
2023-03-03T13:12:30.037Z,50.40
2023-03-03T13:14:56.612Z,50.40
2023-03-03T13:17:23.235Z,50.60
2023-03-03T13:19:49.830Z,50.40
2023-03-03T13:22:16.379Z,50.40
2023-03-03T13:24:42.935Z,50.40
2023-03-03T13:27:09.480Z,50.50
2023-03-03T13:29:36.042Z,50.60
2023-03-03T13:32:02.678Z,50.50
2023-03-03T13:34:29.307Z,50.50
2023-03-03T13:36:55.851Z,50.50
2023-03-03T13:39:22.410Z,50.60
2023-03-03T13:41:48.974Z,50.50
2023-03-03T13:44:15.543Z,50.60
2023-03-03T13:46:42.106Z,50.60
2023-03-03T13:49:08.690Z,50.60
2023-03-03T13:51:35.256Z,50.80
2023-03-03T13:54:01.935Z,50.80
2023-03-03T13:56:28.482Z,50.90
2023-03-03T13:58:55.036Z,50.70
2023-03-03T14:01:21.598Z,51.40
2023-03-03T14:03:48.194Z,50.80
2023-03-03T14:06:14.810Z,50.60
2023-03-03T14:08:41.399Z,50.60
2023-03-03T14:11:07.956Z,50.70
2023-03-03T14:13:34.512Z,50.70
2023-03-03T14:16:01.276Z,50.70
2023-03-03T14:18:27.834Z,51.00
2023-03-03T14:20:54.393Z,51.10
2023-03-03T14:23:20.941Z,51.10
2023-03-03T14:25:47.492Z,51.10
2023-03-03T14:28:14.092Z,51.00
2023-03-03T14:30:40.727Z,50.90
2023-03-03T14:33:07.376Z,51.00
2023-03-03T14:35:33.990Z,51.10
2023-03-03T14:38:00.569Z,51.10
2023-03-03T14:40:27.115Z,51.10
2023-03-03T14:42:53.673Z,51.00
2023-03-03T14:45:29.452Z,51.10
2023-03-03T14:47:56.711Z,51.10
2023-03-03T14:50:23.299Z,51.20
2023-03-03T14:52:49.881Z,51.20
2023-03-03T14:55:16.911Z,52.00
2023-03-03T14:57:43.477Z,51.50
2023-03-03T15:00:10.048Z,51.40
2023-03-03T15:02:36.608Z,51.40
2023-03-03T15:05:03.190Z,51.40
2023-03-03T15:07:29.842Z,51.50
2023-03-03T15:09:56.408Z,51.40
2023-03-03T15:12:22.984Z,51.40
2023-03-03T15:14:49.636Z,51.60
2023-03-03T15:17:16.254Z,51.60
2023-03-03T15:19:42.808Z,51.70
2023-03-03T15:22:09.367Z,51.70
2023-03-03T15:24:35.952Z,51.70
2023-03-03T15:27:02.500Z,51.60
2023-03-03T15:29:29.064Z,51.50
2023-03-03T15:31:55.653Z,51.50
2023-03-03T15:34:22.225Z,51.70
2023-03-03T15:36:48.779Z,51.60
2023-03-03T15:39:15.326Z,51.70
2023-03-03T15:41:41.901Z,51.60
2023-03-03T15:44:08.445Z,51.60
2023-03-03T15:46:35.044Z,51.50
2023-03-03T15:49:01.633Z,51.60
2023-03-03T15:51:28.197Z,51.60
2023-03-03T15:53:54.768Z,51.60
2023-03-03T15:56:21.338Z,52.40
2023-03-03T15:58:47.900Z,51.80
2023-03-03T16:01:14.397Z,51.80
2023-03-03T16:03:40.864Z,51.90
2023-03-03T16:06:07.363Z,51.80
2023-03-03T16:08:33.832Z,51.90
2023-03-03T16:11:00.347Z,51.90
2023-03-03T16:13:26.837Z,52.00
2023-03-03T16:15:53.389Z,52.10
2023-03-03T16:18:19.875Z,52.10
2023-03-03T16:20:46.345Z,52.10
2023-03-03T16:23:12.823Z,52.10
2023-03-03T16:25:39.321Z,52.20
2023-03-03T16:28:05.814Z,52.10
2023-03-03T16:30:32.258Z,52.10
2023-03-03T16:32:58.742Z,52.20
2023-03-03T16:35:25.303Z,52.20
2023-03-03T16:37:51.810Z,52.20
2023-03-03T16:40:18.269Z,52.30
2023-03-03T16:42:44.749Z,52.30
2023-03-03T16:45:11.219Z,52.30
2023-03-03T16:47:37.695Z,52.30
2023-03-03T16:50:04.153Z,52.30
2023-03-03T16:52:30.619Z,52.30
2023-03-03T16:54:57.084Z,52.30
2023-03-03T16:57:23.561Z,52.40
2023-03-03T16:59:50.029Z,52.30
2023-03-03T17:02:16.504Z,52.40
2023-03-03T17:04:43.021Z,52.40
2023-03-03T17:07:09.543Z,52.40
2023-03-03T17:09:36.689Z,52.50
2023-03-03T17:12:04.497Z,52.40
2023-03-03T17:14:30.990Z,52.50
2023-03-03T17:16:57.522Z,52.50
2023-03-03T17:19:24.028Z,52.40
2023-03-03T17:21:50.527Z,52.50
2023-03-03T17:24:17.065Z,52.60
2023-03-03T17:26:43.562Z,52.60
2023-03-03T17:29:10.056Z,52.60
2023-03-03T17:31:36.566Z,52.50
2023-03-03T17:34:03.052Z,52.50
2023-03-03T17:36:29.531Z,52.60
2023-03-03T17:38:56.006Z,52.60
2023-03-03T17:41:22.474Z,52.50
2023-03-03T17:43:48.944Z,52.50
2023-03-03T17:46:15.456Z,52.50
2023-03-03T17:48:41.942Z,52.50
2023-03-03T17:51:08.414Z,52.50
2023-03-03T17:53:34.892Z,52.50
2023-03-03T17:56:01.367Z,52.40
2023-03-03T17:58:27.874Z,52.40
2023-03-03T18:00:54.365Z,52.50
2023-03-03T18:03:20.896Z,52.50
2023-03-03T18:05:47.381Z,52.60
2023-03-03T18:08:13.862Z,52.60
2023-03-03T18:10:42.593Z,52.60
2023-03-03T18:13:09.364Z,52.60
2023-03-03T18:15:35.914Z,52.50
2023-03-03T18:18:02.483Z,52.50
2023-03-03T18:20:28.949Z,52.50
2023-03-03T18:22:55.406Z,52.40
2023-03-03T18:25:21.868Z,52.50
2023-03-03T18:27:48.350Z,52.50
2023-03-03T18:30:14.836Z,52.50
2023-03-03T18:32:41.323Z,52.40
2023-03-03T18:35:07.811Z,52.50
2023-03-03T18:37:34.274Z,52.50
2023-03-03T18:40:00.753Z,52.50
2023-03-03T18:42:27.230Z,52.40
2023-03-03T18:44:53.717Z,53.00
2023-03-03T18:47:20.178Z,52.40
2023-03-03T18:49:46.654Z,52.30
2023-03-03T18:52:13.123Z,52.20
2023-03-03T18:54:39.606Z,52.30
2023-03-03T18:57:06.069Z,52.20
2023-03-03T18:59:32.553Z,52.30
2023-03-03T19:01:59.135Z,52.30
2023-03-03T19:04:25.696Z,52.30
2023-03-03T19:06:52.197Z,52.20
2023-03-03T19:09:18.680Z,52.30
2023-03-03T19:11:45.156Z,52.20
2023-03-03T19:14:11.618Z,52.20
2023-03-03T19:16:38.106Z,52.20
2023-03-03T19:19:04.577Z,52.20
2023-03-03T19:21:31.045Z,52.10
2023-03-03T19:23:57.507Z,52.10
2023-03-03T19:26:23.996Z,52.10
2023-03-03T19:28:50.459Z,52.10
2023-03-03T19:31:16.962Z,51.80
2023-03-03T19:33:43.479Z,50.80
2023-03-03T19:36:09.963Z,51.00
2023-03-03T19:38:36.450Z,51.80
2023-03-03T19:41:02.932Z,52.10
2023-03-03T19:43:29.420Z,51.80
2023-03-03T19:45:55.915Z,52.00
2023-03-03T19:48:22.388Z,52.10
2023-03-03T19:50:48.870Z,51.80
2023-03-03T19:53:15.340Z,52.00
2023-03-03T19:55:41.825Z,51.90
2023-03-03T19:58:08.291Z,51.80
2023-03-03T20:00:34.774Z,51.80
2023-03-03T20:03:01.249Z,52.00
2023-03-03T20:05:27.707Z,52.00
2023-03-03T20:07:54.183Z,52.00
2023-03-03T20:10:20.648Z,52.00
2023-03-03T20:12:47.118Z,52.00
2023-03-03T20:15:13.643Z,52.10
2023-03-03T20:17:40.140Z,51.90
2023-03-03T20:20:06.608Z,51.80
2023-03-03T20:22:33.076Z,51.80
2023-03-03T20:25:03.247Z,52.10
2023-03-03T20:27:29.776Z,51.90
2023-03-03T20:29:56.245Z,51.80
2023-03-03T20:32:22.767Z,51.90
2023-03-03T20:34:49.273Z,51.80
2023-03-03T20:37:15.753Z,51.90
2023-03-03T20:39:42.222Z,51.60
2023-03-03T20:42:09.088Z,51.00
2023-03-03T20:44:35.567Z,51.70
2023-03-03T20:47:02.039Z,51.70
2023-03-03T20:49:28.527Z,51.80
2023-03-03T20:51:54.987Z,50.80
2023-03-03T20:54:21.460Z,51.60
2023-03-03T20:56:47.931Z,51.60
2023-03-03T20:59:14.412Z,51.80
2023-03-03T21:01:40.869Z,51.60
2023-03-03T21:04:07.452Z,50.90
2023-03-03T21:06:33.936Z,50.80
2023-03-03T21:09:00.397Z,50.70
2023-03-03T21:11:26.877Z,51.60
2023-03-03T21:13:53.346Z,51.60
2023-03-03T21:16:19.903Z,51.70
2023-03-03T21:18:46.428Z,51.60
2023-03-03T21:21:12.894Z,51.80
2023-03-03T21:23:39.409Z,50.90
2023-03-03T21:26:05.891Z,50.80
2023-03-03T21:28:32.357Z,50.80
2023-03-03T21:30:58.834Z,50.70
2023-03-03T21:33:25.306Z,50.80
2023-03-03T21:35:51.861Z,50.90
2023-03-03T21:38:18.361Z,50.90
2023-03-03T21:40:44.852Z,51.90
2023-03-03T21:43:11.331Z,52.00
2023-03-03T21:45:39.172Z,51.90
2023-03-03T21:48:05.652Z,52.00
2023-03-03T21:50:33.155Z,51.80
2023-03-03T21:52:59.631Z,50.90
2023-03-03T21:55:26.832Z,50.90
2023-03-03T21:57:53.368Z,50.90
2023-03-03T22:00:19.837Z,50.90
2023-03-03T22:02:46.301Z,51.90
2023-03-03T22:05:12.792Z,52.00
2023-03-03T22:07:39.278Z,52.10
2023-03-03T22:10:05.767Z,52.10
2023-03-03T22:12:32.256Z,52.10
2023-03-03T22:14:58.728Z,52.10
2023-03-03T22:17:25.209Z,52.10
2023-03-03T22:19:51.695Z,52.00
2023-03-03T22:22:18.179Z,52.20
2023-03-03T22:24:44.661Z,52.10
2023-03-03T22:27:11.149Z,52.10
2023-03-03T22:29:37.629Z,52.20
2023-03-03T22:32:04.137Z,52.10
2023-03-03T22:34:30.772Z,52.00
2023-03-03T22:36:57.260Z,52.20
2023-03-03T22:39:23.731Z,52.30
2023-03-03T22:41:50.223Z,52.40
2023-03-03T22:44:21.270Z,52.40
2023-03-03T22:46:47.763Z,52.30
2023-03-03T22:49:14.231Z,52.40
2023-03-03T22:51:40.708Z,52.30
2023-03-03T22:54:07.155Z,52.20
2023-03-03T22:56:33.699Z,52.20
2023-03-03T22:59:00.162Z,52.30
2023-03-03T23:01:26.646Z,52.50
2023-03-03T23:03:53.126Z,52.60
2023-03-03T23:06:19.608Z,52.50
2023-03-03T23:08:46.095Z,52.50
2023-03-03T23:11:12.581Z,52.50
2023-03-03T23:13:39.055Z,52.40
2023-03-03T23:16:05.581Z,52.40
2023-03-03T23:18:32.078Z,52.40
2023-03-03T23:20:58.562Z,52.40
2023-03-03T23:23:25.047Z,52.50
2023-03-03T23:25:51.541Z,52.30
2023-03-03T23:28:17.996Z,52.30
2023-03-03T23:30:44.462Z,52.10
2023-03-03T23:33:10.954Z,52.10
2023-03-03T23:35:37.467Z,52.20
2023-03-03T23:38:03.948Z,52.30
2023-03-03T23:40:30.453Z,52.40
2023-03-03T23:42:56.931Z,52.50
2023-03-03T23:45:23.383Z,52.30
2023-03-03T23:47:49.850Z,52.20
2023-03-03T23:50:16.324Z,52.10
2023-03-03T23:52:42.807Z,52.20
2023-03-03T23:55:09.277Z,52.20
2023-03-03T23:57:39.277Z,52.10
